createdAt,value
2022-10-17T00:00:46.676Z,14.10
2022-10-17T00:03:17.418Z,14.10
2022-10-17T00:05:47.801Z,14.10
2022-10-17T00:08:19.359Z,14.10
2022-10-17T00:10:56.055Z,14.00
2022-10-17T00:13:24.767Z,13.90
2022-10-17T00:15:53.270Z,13.80
2022-10-17T00:18:23.142Z,13.70
2022-10-17T00:20:56.141Z,13.70
2022-10-17T00:23:24.284Z,13.70
2022-10-17T00:26:00.937Z,13.70
2022-10-17T00:30:59.161Z,13.70
2022-10-17T00:36:08.112Z,13.60
2022-10-17T00:38:37.162Z,13.60
2022-10-17T00:41:05.724Z,13.60
2022-10-17T00:43:56.604Z,13.60
2022-10-17T00:46:26.764Z,13.60
2022-10-17T00:48:57.995Z,13.60
2022-10-17T00:51:32.249Z,13.60
2022-10-17T00:54:04.874Z,13.60
2022-10-17T00:56:33.465Z,13.40
2022-10-17T00:59:01.954Z,13.40
2022-10-17T01:04:00.990Z,13.40
2022-10-17T01:06:29.108Z,13.30
2022-10-17T01:08:57.835Z,13.30
2022-10-17T01:11:38.239Z,13.40
2022-10-17T01:14:17.363Z,13.50
2022-10-17T01:16:53.025Z,13.60
2022-10-17T01:19:39.528Z,13.50
2022-10-17T01:22:12.666Z,13.50
2022-10-17T01:24:50.174Z,13.40
2022-10-17T01:27:47.122Z,13.40
2022-10-17T01:31:04.295Z,13.30
2022-10-17T01:33:51.953Z,13.20
2022-10-17T01:36:33.574Z,13.20
2022-10-17T01:39:08.069Z,13.20
2022-10-17T01:41:44.580Z,13.20
2022-10-17T01:44:16.215Z,13.20
2022-10-17T01:46:50.761Z,13.10
2022-10-17T01:49:23.046Z,13.10
2022-10-17T01:51:58.275Z,13.10
2022-10-17T01:54:29.805Z,13.10
2022-10-17T01:57:02.705Z,13.10
2022-10-17T01:59:37.297Z,13.10
2022-10-17T02:02:09.552Z,13.10
2022-10-17T02:04:38.444Z,13.10
2022-10-17T02:07:10.997Z,13.20
2022-10-17T02:09:40.178Z,13.20
2022-10-17T02:12:26.705Z,13.40
2022-10-17T02:15:09.214Z,13.50
2022-10-17T02:17:49.589Z,13.40
2022-10-17T02:20:25.442Z,13.40
2022-10-17T02:23:00.098Z,13.40
2022-10-17T02:25:37.895Z,13.30
2022-10-17T02:28:20.883Z,13.40
2022-10-17T02:30:55.040Z,13.40
2022-10-17T02:33:28.966Z,13.30
2022-10-17T02:36:01.831Z,13.20
2022-10-17T02:38:33.422Z,13.20
2022-10-17T02:41:03.251Z,13.20
2022-10-17T02:46:00.970Z,13.20
2022-10-17T02:48:38.003Z,13.10
2022-10-17T02:51:11.148Z,13.10
2022-10-17T02:53:52.385Z,13.10
2022-10-17T02:56:22.027Z,13.00
2022-10-17T02:58:54.375Z,13.10
2022-10-17T03:01:22.989Z,12.90
2022-10-17T03:03:52.644Z,12.90
2022-10-17T03:06:21.425Z,12.80
2022-10-17T03:08:49.772Z,12.80
2022-10-17T03:11:19.113Z,12.80
2022-10-17T03:13:49.665Z,12.80
2022-10-17T03:16:18.672Z,12.80
2022-10-17T03:18:49.401Z,12.80
2022-10-17T03:21:20.024Z,12.90
2022-10-17T03:23:48.289Z,12.90
2022-10-17T03:26:17.517Z,13.00
2022-10-17T03:28:46.262Z,13.00
2022-10-17T03:31:18.234Z,13.00
2022-10-17T03:33:47.769Z,13.00
2022-10-17T03:36:17.951Z,12.90
2022-10-17T03:38:49.225Z,12.90
2022-10-17T03:41:18.898Z,12.90
2022-10-17T03:43:47.245Z,12.90
2022-10-17T03:46:15.848Z,12.90
2022-10-17T03:48:44.350Z,12.90
2022-10-17T03:51:13.008Z,12.90
2022-10-17T03:53:58.417Z,12.90
2022-10-17T03:59:04.071Z,12.80
2022-10-17T04:01:36.623Z,12.80
2022-10-17T04:04:05.013Z,12.90
2022-10-17T04:06:36.451Z,12.90
2022-10-17T04:09:06.919Z,13.00
2022-10-17T04:12:04.648Z,12.90
2022-10-17T04:14:34.779Z,12.90
2022-10-17T04:19:33.314Z,12.90
2022-10-17T04:22:03.145Z,12.90
2022-10-17T04:24:36.639Z,13.00
2022-10-17T04:27:08.117Z,13.00
2022-10-17T04:29:39.754Z,12.90
2022-10-17T04:32:21.366Z,12.90
2022-10-17T04:35:10.408Z,12.90
2022-10-17T04:37:43.200Z,12.80
2022-10-17T04:40:19.432Z,12.80
2022-10-17T04:42:49.091Z,12.80
2022-10-17T04:45:21.361Z,9.30
2022-10-17T04:47:53.762Z,12.90
2022-10-17T04:50:22.227Z,12.90
2022-10-17T04:53:10.405Z,12.90
2022-10-17T04:55:40.730Z,12.90
2022-10-17T04:58:09.801Z,13.00
2022-10-17T05:00:39.062Z,12.80
2022-10-17T05:03:19.786Z,12.80
2022-10-17T05:05:48.286Z,12.80
2022-10-17T05:08:16.666Z,12.80
2022-10-17T05:10:47.288Z,12.90
2022-10-17T05:13:15.821Z,12.90
2022-10-17T05:15:44.174Z,12.90
2022-10-17T05:18:14.601Z,12.90
2022-10-17T05:20:45.031Z,12.90
2022-10-17T05:23:13.354Z,12.80
2022-10-17T05:25:44.538Z,13.00
2022-10-17T05:28:18.560Z,12.70
2022-10-17T05:30:47.786Z,12.70
2022-10-17T05:35:46.891Z,12.60
2022-10-17T05:38:15.426Z,12.60
2022-10-17T05:40:48.417Z,12.80
2022-10-17T05:50:59.284Z,12.70
2022-10-17T05:53:27.657Z,12.50
2022-10-17T05:56:00.194Z,12.50
2022-10-17T06:01:31.970Z,12.50
2022-10-17T06:04:02.523Z,12.50
2022-10-17T06:06:30.729Z,12.50
2022-10-17T06:08:58.876Z,12.50
2022-10-17T06:16:33.806Z,12.50
2022-10-17T06:21:34.593Z,12.60
2022-10-17T06:24:09.095Z,12.60
2022-10-17T06:26:39.053Z,12.70
2022-10-17T06:29:11.302Z,12.80
2022-10-17T06:31:45.813Z,12.90
2022-10-17T06:36:43.169Z,13.20
2022-10-17T06:44:46.429Z,13.20
2022-10-17T06:50:20.313Z,13.30
2022-10-17T06:52:59.591Z,13.50
2022-10-17T06:55:46.700Z,13.50
2022-10-17T06:58:25.252Z,13.60
2022-10-17T07:03:36.663Z,13.70
2022-10-17T07:06:07.483Z,13.80
2022-10-17T07:08:39.096Z,13.90
2022-10-17T07:11:11.426Z,13.90
2022-10-17T07:16:14.029Z,14.20
2022-10-17T07:18:50.166Z,14.40
2022-10-17T07:21:19.817Z,14.60
2022-10-17T07:23:50.277Z,14.50
2022-10-17T07:26:19.969Z,14.90
2022-10-17T07:28:54.144Z,14.90
2022-10-17T07:31:35.377Z,15.30
2022-10-17T07:34:04.762Z,15.30
2022-10-17T07:36:35.199Z,15.50
2022-10-17T07:39:05.842Z,15.60
2022-10-17T07:41:36.705Z,15.80
2022-10-17T07:44:06.198Z,15.80
2022-10-17T07:46:45.047Z,15.90
2022-10-17T07:49:14.103Z,15.90
2022-10-17T07:51:43.274Z,16.10
2022-10-17T07:54:11.569Z,16.20
2022-10-17T07:57:09.261Z,16.40
2022-10-17T07:59:41.243Z,16.40
2022-10-17T08:02:33.176Z,16.30
2022-10-17T08:05:04.249Z,16.20
2022-10-17T08:07:33.641Z,16.30
2022-10-17T08:10:04.114Z,16.30
2022-10-17T08:12:34.490Z,16.40
2022-10-17T08:15:05.571Z,16.30
2022-10-17T08:17:35.667Z,16.10
2022-10-17T08:20:04.059Z,16.00
2022-10-17T08:22:32.879Z,16.10
2022-10-17T08:25:03.150Z,16.10
2022-10-17T08:27:31.488Z,16.20
2022-10-17T08:29:59.738Z,16.40
2022-10-17T08:32:30.979Z,16.70
2022-10-17T08:40:07.617Z,17.10
2022-10-17T08:43:00.674Z,17.10
2022-10-17T08:45:41.851Z,17.00
2022-10-17T08:48:14.917Z,17.20
2022-10-17T08:50:53.443Z,17.30
2022-10-17T08:53:25.939Z,17.30
2022-10-17T08:55:58.788Z,17.10
2022-10-17T08:58:32.803Z,17.10
2022-10-17T09:01:16.255Z,17.20
2022-10-17T09:04:03.049Z,17.20
2022-10-17T09:06:36.425Z,17.50
2022-10-17T09:09:21.078Z,17.50
2022-10-17T09:12:02.090Z,17.50
2022-10-17T09:14:50.853Z,18.20
2022-10-17T09:17:29.014Z,18.30
2022-10-17T09:20:05.812Z,18.30
2022-10-17T09:22:42.528Z,18.50
2022-10-17T09:25:15.041Z,18.50
2022-10-17T09:27:47.978Z,18.60
2022-10-17T09:30:44.645Z,18.80
2022-10-17T09:33:35.072Z,19.20
2022-10-17T09:36:11.924Z,19.40
2022-10-17T09:38:45.489Z,19.40
2022-10-17T09:41:43.727Z,19.50
2022-10-17T09:44:22.084Z,19.40
2022-10-17T09:47:29.227Z,19.60
2022-10-17T09:52:30.864Z,19.80
2022-10-17T09:55:09.817Z,19.60
2022-10-17T10:00:24.514Z,19.90
2022-10-17T10:05:22.657Z,19.70
2022-10-17T10:08:04.941Z,19.50
2022-10-17T10:13:17.276Z,20.30
2022-10-17T10:15:47.554Z,20.30
2022-10-17T10:18:32.435Z,20.30
2022-10-17T10:21:07.522Z,20.40
2022-10-17T10:26:29.537Z,20.30
2022-10-17T10:29:01.290Z,20.00
2022-10-17T10:31:38.284Z,19.80
2022-10-17T10:34:22.535Z,19.90
2022-10-17T10:36:59.863Z,19.90
2022-10-17T10:39:44.021Z,19.80
2022-10-17T10:42:24.050Z,19.50
2022-10-17T10:44:56.917Z,19.50
2022-10-17T10:47:28.465Z,19.40
2022-10-17T10:50:17.560Z,19.50
2022-10-17T10:52:50.500Z,19.80
2022-10-17T10:55:28.671Z,20.20
2022-10-17T10:58:04.196Z,20.40
2022-10-17T11:00:36.006Z,20.30
2022-10-17T11:03:13.578Z,20.20
2022-10-17T11:05:47.535Z,20.20
2022-10-17T11:08:24.513Z,20.20
2022-10-17T11:11:09.099Z,20.20
2022-10-17T11:13:44.820Z,20.10
2022-10-17T11:16:29.140Z,20.20
2022-10-17T11:19:07.551Z,20.40
2022-10-17T11:21:46.210Z,20.50
2022-10-17T11:24:21.560Z,20.50
2022-10-17T11:26:54.989Z,20.60
2022-10-17T11:29:28.854Z,21.10
2022-10-17T11:32:02.334Z,21.40
2022-10-17T11:34:36.227Z,21.60
2022-10-17T11:37:13.652Z,21.50
2022-10-17T11:39:48.644Z,21.60
2022-10-17T11:42:24.637Z,21.20
2022-10-17T11:45:00.193Z,21.30
2022-10-17T11:47:41.178Z,21.40
2022-10-17T11:53:16.528Z,21.60
2022-10-17T11:55:48.012Z,21.60
2022-10-17T11:58:38.442Z,21.50
2022-10-17T12:01:18.581Z,21.50
2022-10-17T12:03:58.589Z,21.40
2022-10-17T12:06:42.592Z,21.40
2022-10-17T12:09:18.967Z,21.70
2022-10-17T12:11:54.123Z,21.80
2022-10-17T12:14:42.700Z,22.20
2022-10-17T12:17:34.926Z,21.80
2022-10-17T12:20:28.448Z,21.80
2022-10-17T12:23:02.204Z,22.00
2022-10-17T12:25:33.889Z,22.00
2022-10-17T12:28:16.540Z,21.90
2022-10-17T12:31:02.245Z,21.70
2022-10-17T12:33:38.628Z,21.90
2022-10-17T12:36:48.936Z,22.00
2022-10-17T12:39:50.521Z,22.10
2022-10-17T12:42:47.298Z,22.30
2022-10-17T12:45:52.450Z,22.40
2022-10-17T12:49:03.444Z,22.50
2022-10-17T12:51:51.566Z,22.30
2022-10-17T12:54:19.936Z,22.10
2022-10-17T12:56:50.604Z,22.10
2022-10-17T12:59:23.484Z,21.70
2022-10-17T13:01:54.533Z,21.70
2022-10-17T13:04:31.764Z,21.80
2022-10-17T13:07:01.651Z,21.90
2022-10-17T13:09:32.657Z,21.90
2022-10-17T13:12:03.559Z,22.00
2022-10-17T13:14:34.548Z,22.20
2022-10-17T13:17:07.362Z,22.40
2022-10-17T13:19:43.998Z,22.40
2022-10-17T13:22:18.518Z,22.30
2022-10-17T13:24:47.485Z,22.40
2022-10-17T13:27:28.064Z,22.40
2022-10-17T13:29:59.669Z,22.80
2022-10-17T13:32:37.735Z,22.70
2022-10-17T13:35:15.174Z,22.50
2022-10-17T13:37:50.331Z,22.50
2022-10-17T13:40:40.907Z,22.50
2022-10-17T13:43:18.178Z,22.70
2022-10-17T13:45:50.694Z,22.80
2022-10-17T13:48:25.050Z,22.80
2022-10-17T13:51:03.076Z,22.50
2022-10-17T13:53:33.824Z,22.60
2022-10-17T13:56:32.946Z,22.80
2022-10-17T13:59:21.283Z,22.80
2022-10-17T14:01:49.985Z,21.90
2022-10-17T14:04:20.426Z,22.50
2022-10-17T14:06:52.274Z,22.40
2022-10-17T14:09:24.528Z,22.40
2022-10-17T14:12:01.964Z,22.30
2022-10-17T14:14:46.060Z,22.20
2022-10-17T14:17:24.798Z,22.20
2022-10-17T14:20:16.060Z,22.20
2022-10-17T14:22:50.530Z,22.10
2022-10-17T14:25:36.718Z,22.20
2022-10-17T14:28:15.536Z,22.30
2022-10-17T14:30:56.164Z,22.30
2022-10-17T14:33:30.169Z,22.40
2022-10-17T14:36:01.292Z,22.40
2022-10-17T14:38:31.630Z,22.40
2022-10-17T14:41:30.639Z,22.30
2022-10-17T14:43:58.743Z,22.20
2022-10-17T14:46:28.118Z,22.20
2022-10-17T14:49:00.499Z,22.10
2022-10-17T14:51:35.936Z,22.10
2022-10-17T14:54:24.297Z,22.10
2022-10-17T14:56:55.001Z,22.10
2022-10-17T14:59:52.174Z,22.10
2022-10-17T15:02:14.331Z,22.10
2022-10-17T15:04:42.977Z,22.20
2022-10-17T15:07:15.697Z,22.00
2022-10-17T15:09:48.549Z,22.00
2022-10-17T15:12:19.368Z,22.00
2022-10-17T15:14:49.054Z,22.00
2022-10-17T15:17:21.432Z,21.90
2022-10-17T15:19:50.865Z,21.80
2022-10-17T15:22:19.596Z,21.80
2022-10-17T15:24:50.329Z,21.80
2022-10-17T15:27:20.234Z,21.90
2022-10-17T15:29:49.193Z,22.00
2022-10-17T15:32:20.305Z,21.90
2022-10-17T15:37:29.603Z,21.70
2022-10-17T15:39:59.646Z,21.70
2022-10-17T15:42:32.696Z,21.60
2022-10-17T15:45:02.019Z,21.30
2022-10-17T15:47:35.103Z,21.30
2022-10-17T15:50:06.708Z,21.30
2022-10-17T15:52:34.767Z,21.20
2022-10-17T15:55:05.525Z,20.70
2022-10-17T15:57:38.040Z,20.60
2022-10-17T16:00:10.796Z,20.40
2022-10-17T16:02:42.786Z,20.40
2022-10-17T16:05:17.566Z,20.20
2022-10-17T16:07:55.631Z,20.10
2022-10-17T16:10:25.929Z,20.10
2022-10-17T16:12:54.471Z,19.80
2022-10-17T16:15:25.014Z,19.80
2022-10-17T16:17:55.611Z,19.80
2022-10-17T16:20:25.207Z,19.70
2022-10-17T16:23:00.335Z,19.70
2022-10-17T16:25:35.040Z,19.50
2022-10-17T16:28:04.384Z,19.40
2022-10-17T16:30:34.156Z,19.40
2022-10-17T16:33:07.894Z,18.60
2022-10-17T16:35:37.716Z,19.20
2022-10-17T16:38:07.933Z,19.10
2022-10-17T16:40:40.023Z,19.00
2022-10-17T16:43:10.817Z,18.80
2022-10-17T16:45:40.485Z,18.80
2022-10-17T16:48:10.668Z,18.80
2022-10-17T16:55:43.558Z,18.70
2022-10-17T16:58:12.354Z,18.60
2022-10-17T17:00:41.060Z,18.60
2022-10-17T17:03:12.884Z,21.90
2022-10-17T17:05:51.517Z,18.60
2022-10-17T17:08:20.670Z,18.60
2022-10-17T17:10:51.203Z,18.60
2022-10-17T17:18:22.340Z,18.50
2022-10-17T17:20:52.212Z,18.40
2022-10-17T17:25:58.086Z,18.30
2022-10-17T17:28:42.473Z,18.40
2022-10-17T17:31:12.598Z,18.40
2022-10-17T17:33:42.905Z,18.40
2022-10-17T17:36:17.375Z,18.40
2022-10-17T17:38:47.023Z,18.30
2022-10-17T17:41:18.696Z,17.90
2022-10-17T17:43:50.002Z,17.60
2022-10-17T17:46:20.282Z,17.60
2022-10-17T17:48:51.006Z,17.20
2022-10-17T17:51:28.305Z,17.10
2022-10-17T17:53:59.525Z,17.20
2022-10-17T17:56:32.338Z,17.10
2022-10-17T17:59:03.565Z,17.20
2022-10-17T18:01:37.031Z,17.20
2022-10-17T18:04:09.028Z,17.00
2022-10-17T18:06:42.142Z,17.00
2022-10-17T18:09:13.145Z,17.00
2022-10-17T18:14:21.750Z,17.00
2022-10-17T18:16:57.939Z,17.10
2022-10-17T18:19:28.631Z,17.10
2022-10-17T18:22:00.818Z,17.10
2022-10-17T18:24:29.029Z,17.20
2022-10-17T18:27:00.009Z,17.20
2022-10-17T18:34:30.642Z,17.20
2022-10-17T18:37:00.331Z,17.10
2022-10-17T18:39:32.220Z,17.10
2022-10-17T18:42:01.619Z,17.10
2022-10-17T18:44:34.808Z,17.00
2022-10-17T18:54:38.084Z,17.00
2022-10-17T18:59:43.377Z,17.00
2022-10-17T19:07:22.845Z,16.90
2022-10-17T19:14:57.872Z,17.10
2022-10-17T19:20:01.071Z,17.10
2022-10-17T19:22:33.553Z,17.10
2022-10-17T19:40:12.044Z,17.30
2022-10-17T19:42:54.926Z,17.20
2022-10-17T19:46:14.601Z,17.20
2022-10-17T19:48:47.809Z,17.20
2022-10-17T19:51:19.526Z,17.20
2022-10-17T19:53:50.582Z,17.20
2022-10-17T19:58:55.922Z,17.20
2022-10-17T20:01:26.522Z,17.20
2022-10-17T20:03:58.025Z,17.10
2022-10-17T20:06:26.882Z,17.10
2022-10-17T20:08:57.034Z,17.10
2022-10-17T20:11:28.714Z,17.20
2022-10-17T20:16:29.321Z,17.30
2022-10-17T20:19:04.941Z,17.30
2022-10-17T20:24:06.844Z,17.40
2022-10-17T20:26:39.576Z,17.40
2022-10-17T20:29:12.749Z,17.40
2022-10-17T20:31:42.542Z,17.40
2022-10-17T20:34:17.257Z,17.40
2022-10-17T20:39:17.241Z,17.60
2022-10-17T20:41:46.638Z,17.70
2022-10-17T20:49:38.100Z,17.50
2022-10-17T20:52:07.130Z,17.40
2022-10-17T20:54:36.900Z,17.40
2022-10-17T20:57:07.596Z,17.40
2022-10-17T20:59:38.992Z,17.40
2022-10-17T21:02:14.354Z,17.40
2022-10-17T21:04:46.720Z,17.30
2022-10-17T21:07:16.191Z,17.40
2022-10-17T21:09:46.878Z,17.40
2022-10-17T21:12:25.865Z,17.40
2022-10-17T21:17:34.182Z,17.40
2022-10-17T21:22:35.141Z,17.20
2022-10-17T21:25:06.916Z,17.10
2022-10-17T21:27:35.508Z,17.10
2022-10-17T21:30:03.954Z,17.00
2022-10-17T21:32:40.233Z,17.00
2022-10-17T21:40:22.104Z,16.90
2022-10-17T21:42:50.358Z,16.90
2022-10-17T21:45:25.313Z,16.90
2022-10-17T21:48:12.099Z,16.90
2022-10-17T21:50:43.081Z,16.90
2022-10-17T21:53:11.932Z,17.00
2022-10-17T21:55:40.688Z,17.10
2022-10-17T21:58:10.187Z,17.10
2022-10-17T22:00:39.070Z,17.10
2022-10-17T22:03:09.564Z,17.10
2022-10-17T22:05:38.368Z,17.00
2022-10-17T22:08:10.827Z,17.00
2022-10-17T22:10:39.611Z,17.00
2022-10-17T22:15:37.070Z,17.10
2022-10-17T22:18:05.955Z,17.10
2022-10-17T22:20:36.119Z,17.20
2022-10-17T22:23:06.572Z,17.20
2022-10-17T22:25:38.181Z,17.30
2022-10-17T22:33:04.095Z,17.40
2022-10-17T22:35:32.304Z,17.40
2022-10-17T22:38:00.531Z,17.50
2022-10-17T22:40:30.275Z,17.30
2022-10-17T22:43:00.630Z,17.40
2022-10-17T22:45:29.253Z,17.50
2022-10-17T22:47:58.305Z,17.50
2022-10-17T22:50:26.617Z,17.50
2022-10-17T22:52:57.381Z,17.70
2022-10-17T22:55:28.120Z,17.70
2022-10-17T22:57:56.230Z,17.60
2022-10-17T23:00:25.801Z,17.50
2022-10-17T23:02:55.101Z,17.50
2022-10-17T23:05:23.194Z,17.50
2022-10-17T23:07:51.906Z,17.50
2022-10-17T23:10:20.042Z,17.50
2022-10-17T23:12:48.132Z,17.40
2022-10-17T23:15:16.791Z,17.30
2022-10-17T23:17:46.445Z,17.30
2022-10-17T23:20:14.635Z,17.30
2022-10-17T23:22:42.944Z,17.30
2022-10-17T23:25:13.511Z,17.20
2022-10-17T23:27:41.676Z,17.10
2022-10-17T23:30:11.776Z,17.10
2022-10-17T23:32:42.696Z,17.10
2022-10-17T23:35:14.351Z,17.10
2022-10-17T23:37:42.641Z,17.10
2022-10-17T23:40:12.009Z,17.10
2022-10-17T23:42:40.196Z,17.20
2022-10-17T23:45:09.695Z,17.20
2022-10-17T23:47:37.960Z,17.20
2022-10-17T23:50:08.940Z,17.20
2022-10-17T23:52:38.530Z,17.20
2022-10-17T23:55:07.857Z,17.30
2022-10-17T23:57:35.936Z,17.30
